Terminal Aerodrome Forecast
Issued by NWS Buffalo, NY

Home | Current Version | Previous Version | Text Only | Print | Product List | Glossary On
Versions: 1 2 3 4 5 6 7 8 9 10 11 12 13 14 15 16 17 18 19 20 21 22 23 24 25 26 27 28 29 30 31
000
FTUS41 KBUF 270500
TAFBUF
TAF
KBUF 270523Z 2706/2806 24005KT 5SM BR FEW007 OVC060
     FM270800 24005KT P6SM FEW020 BKN060
     FM271200 25005KT 5SM BR VCSH OVC020
     FM271600 28005KT 2SM -SN OVC025
     FM271900 32006KT 2SM -SHSN OVC015=

USA.gov is the U.S. government's official web portal to all federal, state and local government web resources and services.